createdAt,value
2022-09-20T00:01:34.357Z,102093.89
2022-09-20T00:04:06.182Z,102082.71
2022-09-20T00:06:34.768Z,102088.23
2022-09-20T00:09:04.071Z,102079.63
2022-09-20T00:11:34.411Z,102088.40
2022-09-20T00:14:03.553Z,102087.26
2022-09-20T00:16:34.097Z,102082.77
2022-09-20T00:19:05.226Z,102089.02
2022-09-20T00:21:35.929Z,102095.07
2022-09-20T00:24:04.113Z,102086.93
2022-09-20T00:26:31.901Z,102095.34
2022-09-20T00:29:02.517Z,102094.09
2022-09-20T00:31:30.183Z,102093.30
2022-09-20T00:34:17.981Z,102087.68
2022-09-20T00:36:46.106Z,102089.55
2022-09-20T00:39:15.974Z,102084.45
2022-09-20T00:41:43.936Z,102085.36
2022-09-20T00:44:49.024Z,102087.59
2022-09-20T00:47:41.913Z,102083.43
2022-09-20T00:50:29.799Z,102071.49
2022-09-20T00:53:04.880Z,102068.13
2022-09-20T00:55:34.465Z,102067.96
2022-09-20T00:58:02.829Z,102066.36
2022-09-20T01:00:30.723Z,102070.02
2022-09-20T01:03:02.425Z,102065.58
2022-09-20T01:05:30.320Z,102066.36
2022-09-20T01:07:58.616Z,102059.16
2022-09-20T01:10:26.601Z,102064.43
2022-09-20T01:12:55.303Z,102063.29
2022-09-20T01:15:24.502Z,102065.84
2022-09-20T01:17:54.259Z,102065.05
2022-09-20T01:20:24.130Z,102059.79
2022-09-20T01:23:29.497Z,102067.11
2022-09-20T01:26:27.840Z,102062.77
2022-09-20T01:29:08.206Z,102066.72
2022-09-20T01:31:42.746Z,102062.83
2022-09-20T01:34:18.986Z,102050.11
2022-09-20T01:37:12.894Z,102050.47
2022-09-20T01:39:55.691Z,102054.59
2022-09-20T01:42:32.867Z,102043.70
2022-09-20T01:45:07.003Z,102046.71
2022-09-20T01:48:10.490Z,102043.17
2022-09-20T01:51:03.593Z,102051.58
2022-09-20T01:53:37.084Z,102057.70
2022-09-20T01:56:07.733Z,102052.56
2022-09-20T01:59:22.696Z,102047.43
2022-09-20T02:02:09.133Z,102047.52
2022-09-20T02:04:51.816Z,102052.95
2022-09-20T02:07:46.450Z,102045.83
2022-09-20T02:10:24.214Z,102039.41
2022-09-20T02:13:00.227Z,102043.57
2022-09-20T02:15:46.220Z,102045.27
2022-09-20T02:18:46.267Z,102051.80
2022-09-20T02:21:35.161Z,102064.07
2022-09-20T02:24:37.684Z,102056.75
2022-09-20T02:27:23.961Z,102061.81
2022-09-20T02:30:16.525Z,102054.00
2022-09-20T02:33:05.514Z,102065.58
2022-09-20T02:35:43.222Z,102064.30
2022-09-20T02:38:28.960Z,102062.37
2022-09-20T02:41:21.292Z,102061.09
2022-09-20T02:44:13.314Z,102058.84
2022-09-20T02:47:01.306Z,102057.47
2022-09-20T02:49:53.390Z,102056.23
2022-09-20T02:53:06.169Z,102059.79
2022-09-20T02:55:48.175Z,102059.13
2022-09-20T02:58:21.750Z,102062.89
2022-09-20T03:01:00.779Z,102060.51
2022-09-20T03:03:56.257Z,102060.60
2022-09-20T03:06:51.733Z,102066.78
2022-09-20T03:09:29.285Z,102068.16
2022-09-20T03:12:32.659Z,102077.67
2022-09-20T03:15:18.570Z,102071.95
2022-09-20T03:18:13.940Z,102075.98
2022-09-20T03:21:01.394Z,102074.57
2022-09-20T03:23:56.822Z,102076.40
2022-09-20T03:26:38.519Z,102086.96
2022-09-20T03:29:43.378Z,102086.47
2022-09-20T03:32:17.898Z,102085.00
2022-09-20T03:34:52.931Z,102090.36
2022-09-20T03:37:36.308Z,102077.45
2022-09-20T03:40:22.410Z,102083.27
2022-09-20T03:42:53.653Z,102085.78
2022-09-20T03:45:21.206Z,102082.80
2022-09-20T03:48:00.921Z,102090.46
2022-09-20T03:50:50.958Z,102080.42
2022-09-20T03:53:34.985Z,102084.77
2022-09-20T03:56:24.211Z,102082.02
2022-09-20T03:59:01.557Z,102076.53
2022-09-20T04:02:13.933Z,102076.76
2022-09-20T04:05:00.023Z,102079.05
2022-09-20T04:07:27.552Z,102074.70
2022-09-20T04:10:14.820Z,102079.15
2022-09-20T04:12:57.106Z,102072.61
2022-09-20T04:15:37.365Z,102075.26
2022-09-20T04:18:44.660Z,102077.77
2022-09-20T04:21:24.826Z,102072.28
2022-09-20T04:23:55.495Z,102073.78
2022-09-20T04:26:48.427Z,102079.27
2022-09-20T04:29:41.859Z,102079.38
2022-09-20T04:32:25.532Z,102089.09
2022-09-20T04:35:22.591Z,102081.44
2022-09-20T04:37:51.979Z,102085.98
2022-09-20T04:40:45.549Z,102088.40
2022-09-20T04:43:28.068Z,102087.48
2022-09-20T04:46:41.148Z,102085.78
2022-09-20T04:49:36.434Z,102088.53
2022-09-20T04:52:05.238Z,102096.77
2022-09-20T04:54:35.960Z,102091.51
2022-09-20T04:57:09.626Z,102094.35
2022-09-20T05:00:05.293Z,102097.00
2022-09-20T05:02:54.367Z,102106.48
2022-09-20T05:05:45.503Z,102108.18
2022-09-20T05:08:49.996Z,102113.68
2022-09-20T05:11:35.582Z,102111.98
2022-09-20T05:14:25.241Z,102113.22
2022-09-20T05:17:17.128Z,102117.11
2022-09-20T05:20:06.543Z,102112.99
2022-09-20T05:22:43.193Z,102126.17
2022-09-20T05:25:39.453Z,102118.02
2022-09-20T05:28:44.997Z,102119.62
2022-09-20T05:31:16.169Z,102116.33
2022-09-20T05:34:03.029Z,102118.71
2022-09-20T05:36:57.137Z,102122.93
2022-09-20T05:39:50.877Z,102126.92
2022-09-20T05:42:25.148Z,102130.26
2022-09-20T05:44:59.250Z,102130.68
2022-09-20T05:47:47.744Z,102124.05
2022-09-20T05:50:39.114Z,102123.16
2022-09-20T05:53:27.120Z,102122.80
2022-09-20T05:56:19.271Z,102124.17
2022-09-20T05:59:31.280Z,102132.38
2022-09-20T06:02:01.551Z,102136.50
2022-09-20T06:04:38.992Z,102134.12
2022-09-20T06:07:33.635Z,102133.76
2022-09-20T06:10:25.722Z,102130.45
2022-09-20T06:13:25.436Z,102126.01
2022-09-20T06:16:00.062Z,102132.16
2022-09-20T06:18:27.987Z,102131.37
2022-09-20T06:21:24.719Z,102134.67
2022-09-20T06:23:58.252Z,102128.49
2022-09-20T06:26:30.567Z,102131.27
2022-09-20T06:29:04.155Z,102136.50
2022-09-20T06:31:31.909Z,102135.26
2022-09-20T06:34:04.673Z,102142.13
2022-09-20T06:36:53.681Z,102141.21
2022-09-20T06:40:04.933Z,102145.95
2022-09-20T06:42:32.637Z,102143.76
2022-09-20T06:45:00.221Z,102149.74
2022-09-20T06:47:28.123Z,102154.42
2022-09-20T06:49:56.612Z,102149.88
2022-09-20T06:52:24.298Z,102152.63
2022-09-20T06:54:54.987Z,102156.52
2022-09-20T06:57:35.866Z,102156.61
2022-09-20T07:00:03.645Z,102158.34
2022-09-20T07:02:31.246Z,102160.54
2022-09-20T07:05:00.377Z,102162.14
2022-09-20T07:07:28.121Z,102157.07
2022-09-20T07:09:55.766Z,102165.57
2022-09-20T07:12:23.394Z,102158.38
2022-09-20T07:14:51.670Z,102160.77
2022-09-20T07:17:19.253Z,102163.16
2022-09-20T07:19:46.913Z,102159.30
2022-09-20T07:22:15.604Z,102155.41
2022-09-20T07:24:43.275Z,102159.95
2022-09-20T07:27:12.910Z,102157.20
2022-09-20T07:29:42.189Z,102162.37
2022-09-20T07:32:09.886Z,102162.73
2022-09-20T07:34:37.482Z,102169.50
2022-09-20T07:37:05.216Z,102163.19
2022-09-20T07:39:32.899Z,102165.84
2022-09-20T07:42:00.517Z,102172.93
2022-09-20T07:44:29.058Z,102175.19
2022-09-20T07:47:01.954Z,102171.88
2022-09-20T07:49:33.498Z,102181.98
2022-09-20T07:52:01.111Z,102188.73
2022-09-20T07:54:29.337Z,102184.05
2022-09-20T07:56:57.406Z,102186.66
2022-09-20T07:59:25.472Z,102187.77
2022-09-20T08:01:53.180Z,102189.28
2022-09-20T08:04:20.873Z,102190.30
2022-09-20T08:06:48.522Z,102192.91
2022-09-20T08:09:16.342Z,102195.85
2022-09-20T08:11:44.833Z,102197.23
2022-09-20T08:14:17.071Z,102190.42
2022-09-20T08:16:48.273Z,102192.13
2022-09-20T08:19:24.179Z,102202.52
2022-09-20T08:21:55.047Z,102208.02
2022-09-20T08:24:22.962Z,102199.48
2022-09-20T08:26:50.574Z,102202.30
2022-09-20T08:29:18.927Z,102202.13
2022-09-20T08:31:47.533Z,102200.30
2022-09-20T08:34:18.083Z,102204.29
2022-09-20T08:36:48.087Z,102214.23
2022-09-20T08:42:21.090Z,102211.48
2022-09-20T08:45:01.166Z,102211.09
2022-09-20T08:47:45.682Z,102206.68
2022-09-20T08:50:18.140Z,102205.44
2022-09-20T08:52:49.559Z,102211.38
2022-09-20T08:55:37.068Z,102202.46
2022-09-20T08:58:08.750Z,102205.20
2022-09-20T09:00:38.240Z,102210.53
2022-09-20T09:03:11.869Z,102201.45
2022-09-20T09:05:47.025Z,102201.31
2022-09-20T09:08:28.311Z,102207.73
2022-09-20T09:10:59.508Z,102201.67
2022-09-20T09:13:54.322Z,102190.00
2022-09-20T09:16:31.825Z,102187.45
2022-09-20T09:19:33.948Z,102188.59
2022-09-20T09:22:04.437Z,102188.56
2022-09-20T09:24:32.609Z,102184.24
2022-09-20T09:27:17.420Z,102184.90
2022-09-20T09:29:55.513Z,102187.77
2022-09-20T09:32:29.584Z,102180.42
2022-09-20T09:34:58.442Z,102182.51
2022-09-20T09:37:30.117Z,102181.98
2022-09-20T09:40:27.627Z,102183.27
2022-09-20T09:43:01.578Z,102177.84
2022-09-20T09:45:39.520Z,102181.70
2022-09-20T09:48:28.587Z,102178.00
2022-09-20T09:51:12.709Z,102173.35
2022-09-20T09:53:40.844Z,102171.30
2022-09-20T09:56:14.433Z,102167.96
2022-09-20T09:58:51.107Z,102172.41
2022-09-20T10:01:33.551Z,102179.77
2022-09-20T10:04:24.018Z,102178.65
2022-09-20T10:07:06.179Z,102172.08
2022-09-20T10:10:10.638Z,102174.66
2022-09-20T10:13:05.248Z,102169.20
2022-09-20T10:15:35.918Z,102166.65
2022-09-20T10:18:25.263Z,102174.01
2022-09-20T10:21:45.145Z,102163.74
2022-09-20T10:24:32.090Z,102161.32
2022-09-20T10:27:27.514Z,102155.34
2022-09-20T10:30:18.469Z,102158.80
2022-09-20T10:33:16.067Z,102158.09
2022-09-20T10:36:08.936Z,102157.23
2022-09-20T10:38:36.475Z,102151.91
2022-09-20T10:41:41.609Z,102152.23
2022-09-20T10:44:19.399Z,102150.62
2022-09-20T10:47:14.985Z,102139.70
2022-09-20T10:50:06.182Z,102138.53
2022-09-20T10:52:50.365Z,102141.38
2022-09-20T10:55:42.858Z,102144.52
2022-09-20T10:58:29.037Z,102147.03
2022-09-20T11:00:56.640Z,102143.44
2022-09-20T11:03:38.175Z,102135.88
2022-09-20T11:06:23.217Z,102136.50
2022-09-20T11:08:56.840Z,102134.34
2022-09-20T11:11:36.869Z,102137.94
2022-09-20T11:14:12.252Z,102141.11
2022-09-20T11:16:55.139Z,102140.13
2022-09-20T11:19:32.428Z,102141.54
2022-09-20T11:22:03.189Z,102144.71
2022-09-20T11:24:39.327Z,102138.76
2022-09-20T11:27:15.298Z,102141.93
2022-09-20T11:29:51.735Z,102145.10
2022-09-20T11:32:26.142Z,102148.93
2022-09-20T11:35:03.009Z,102147.42
2022-09-20T11:37:45.757Z,102143.14
2022-09-20T11:40:26.178Z,102145.04
2022-09-20T11:42:55.978Z,102143.73
2022-09-20T11:45:28.345Z,102148.21
2022-09-20T11:48:03.776Z,102149.91
2022-09-20T11:51:13.813Z,102144.12
2022-09-20T11:54:17.196Z,102147.81
2022-09-20T11:56:57.613Z,102138.86
2022-09-20T11:59:57.537Z,102138.86
2022-09-20T12:02:36.489Z,102131.17
2022-09-20T12:05:08.885Z,102139.15
2022-09-20T12:07:40.875Z,102136.57
2022-09-20T12:10:21.501Z,102122.93
2022-09-20T12:12:55.924Z,102122.31
2022-09-20T12:15:42.130Z,102127.31
2022-09-20T12:18:34.926Z,102126.79
2022-09-20T12:21:17.612Z,102129.70
2022-09-20T12:23:58.264Z,102128.39
2022-09-20T12:26:28.799Z,102134.57
2022-09-20T12:28:59.896Z,102125.13
2022-09-20T12:31:30.181Z,102120.64
2022-09-20T12:34:00.271Z,102120.15
2022-09-20T12:36:35.325Z,102125.32
2022-09-20T12:39:07.795Z,102117.18
2022-09-20T12:41:58.881Z,102120.55
2022-09-20T12:44:32.681Z,102119.95
2022-09-20T12:47:11.440Z,102117.83
2022-09-20T12:50:07.056Z,102113.94
2022-09-20T12:52:56.942Z,102108.09
2022-09-20T12:55:31.091Z,102111.29
2022-09-20T12:58:07.723Z,102116.06
2022-09-20T13:00:49.024Z,102109.46
2022-09-20T13:03:16.576Z,102110.87
2022-09-20T13:05:49.279Z,102107.79
2022-09-20T13:08:21.774Z,102102.82
2022-09-20T13:10:59.233Z,102102.82
2022-09-20T13:13:33.370Z,102100.99
2022-09-20T13:16:03.108Z,102106.29
2022-09-20T13:18:31.337Z,102099.81
2022-09-20T13:21:07.452Z,102098.27
2022-09-20T13:23:46.665Z,102101.52
2022-09-20T13:26:16.585Z,102080.78
2022-09-20T13:28:50.747Z,102094.55
2022-09-20T13:31:21.357Z,102088.76
2022-09-20T13:33:49.677Z,102098.02
2022-09-20T13:36:29.307Z,102094.84
2022-09-20T13:38:59.061Z,102090.36
2022-09-20T13:41:30.318Z,102083.76
2022-09-20T13:43:58.521Z,102091.64
2022-09-20T13:46:35.304Z,102089.25
2022-09-20T13:49:12.399Z,102079.27
2022-09-20T13:51:40.096Z,102077.22
2022-09-20T13:54:31.129Z,102081.70
2022-09-20T13:57:04.438Z,102097.13
2022-09-20T13:59:41.717Z,102081.40
2022-09-20T14:02:30.686Z,102089.77
2022-09-20T14:05:01.546Z,102084.28
2022-09-20T14:07:30.703Z,102081.89
2022-09-20T14:09:59.960Z,102081.40
2022-09-20T14:12:28.534Z,102088.17
2022-09-20T14:14:56.942Z,102083.98
2022-09-20T14:17:25.830Z,102079.21
2022-09-20T14:19:55.769Z,102089.77
2022-09-20T14:22:30.673Z,102071.04
2022-09-20T14:25:22.577Z,102085.95
2022-09-20T14:28:05.003Z,102090.76
2022-09-20T14:30:37.540Z,102082.09
2022-09-20T14:33:08.337Z,102079.21
2022-09-20T14:35:36.094Z,102075.02
2022-09-20T14:38:09.643Z,102078.59
2022-09-20T14:40:47.087Z,102074.11
2022-09-20T14:43:27.070Z,102084.09
2022-09-20T14:45:58.316Z,102083.27
2022-09-20T14:48:25.948Z,102085.39
2022-09-20T14:51:28.740Z,102082.77
2022-09-20T14:54:05.354Z,102088.27
2022-09-20T14:56:38.893Z,102092.65
2022-09-20T14:59:10.396Z,102087.35
2022-09-20T15:01:42.415Z,102088.37
2022-09-20T15:04:18.788Z,102085.16
2022-09-20T15:06:46.506Z,102093.05
2022-09-20T15:09:14.675Z,102096.45
2022-09-20T15:11:42.428Z,102094.55
2022-09-20T15:14:10.056Z,102079.54
2022-09-20T15:16:37.979Z,102093.96
2022-09-20T15:19:07.136Z,102098.63
2022-09-20T15:21:34.881Z,102102.82
2022-09-20T15:24:02.745Z,102096.77
2022-09-20T15:26:32.578Z,102106.68
2022-09-20T15:29:01.183Z,102096.64
2022-09-20T15:31:29.869Z,102104.03
2022-09-20T15:33:57.508Z,102103.70
2022-09-20T15:36:25.096Z,102100.73
2022-09-20T15:38:54.922Z,102099.13
2022-09-20T15:41:22.604Z,102107.01
2022-09-20T15:43:51.378Z,102103.31
2022-09-20T15:46:23.980Z,102100.14
2022-09-20T15:48:51.664Z,102102.72
2022-09-20T15:51:19.262Z,102099.55
2022-09-20T15:53:50.534Z,102107.59
2022-09-20T15:56:23.603Z,102095.46
2022-09-20T15:58:53.380Z,102107.46
2022-09-20T16:01:21.074Z,102101.12
2022-09-20T16:03:50.098Z,102108.18
2022-09-20T16:06:17.908Z,102100.50
2022-09-20T16:08:45.658Z,102105.21
2022-09-20T16:11:22.415Z,102106.98
2022-09-20T16:13:55.281Z,102107.76
2022-09-20T16:16:23.494Z,102106.48
2022-09-20T16:19:10.081Z,102105.50
2022-09-20T16:21:40.598Z,102107.86
2022-09-20T16:24:09.226Z,102110.73
2022-09-20T16:26:37.684Z,102115.73
2022-09-20T16:29:06.160Z,102114.63
2022-09-20T16:31:43.001Z,102110.63
2022-09-20T16:34:22.612Z,102115.02
2022-09-20T16:36:52.559Z,102119.40
2022-09-20T16:39:21.774Z,102127.45
2022-09-20T16:41:49.954Z,102121.55
2022-09-20T16:44:17.643Z,102123.32
2022-09-20T16:46:46.340Z,102117.77
2022-09-20T16:49:14.617Z,102112.47
2022-09-20T16:51:43.990Z,102119.73
2022-09-20T16:54:14.343Z,102123.62
2022-09-20T16:56:47.470Z,102125.84
2022-09-20T16:59:16.997Z,102128.10
2022-09-20T17:01:45.851Z,102128.78
2022-09-20T17:04:15.352Z,102123.39
2022-09-20T17:06:44.514Z,102128.52
2022-09-20T17:09:13.315Z,102135.29
2022-09-20T17:11:47.037Z,102134.67
2022-09-20T17:14:16.033Z,102141.41
2022-09-20T17:16:44.701Z,102146.87
2022-09-20T17:19:14.277Z,102149.91
2022-09-20T17:21:44.842Z,102156.68
2022-09-20T17:24:13.208Z,102150.30
2022-09-20T17:26:43.087Z,102159.42
2022-09-20T17:29:11.911Z,102154.12
2022-09-20T17:31:43.119Z,102159.59
2022-09-20T17:34:12.728Z,102158.48
2022-09-20T17:36:43.442Z,102167.30
2022-09-20T17:39:13.346Z,102167.80
2022-09-20T17:41:42.869Z,102165.90
2022-09-20T17:44:11.207Z,102170.05
2022-09-20T17:46:41.117Z,102170.54
2022-09-20T17:49:11.320Z,102156.29
2022-09-20T17:51:41.233Z,102158.05
2022-09-20T17:54:09.599Z,102164.00
2022-09-20T17:56:37.384Z,102165.80
2022-09-20T17:59:06.754Z,102169.95
2022-09-20T18:01:36.485Z,102170.90
2022-09-20T18:04:05.700Z,102181.63
2022-09-20T18:06:43.293Z,102182.58
2022-09-20T18:09:13.102Z,102181.79
2022-09-20T18:11:50.516Z,102175.74
2022-09-20T18:14:21.610Z,102191.08
2022-09-20T18:16:49.224Z,102188.69
2022-09-20T18:19:17.715Z,102188.85
2022-09-20T18:21:45.348Z,102192.23
2022-09-20T18:24:13.194Z,102205.83
2022-09-20T18:26:41.483Z,102201.51
2022-09-20T18:29:14.387Z,102210.63
2022-09-20T18:31:47.770Z,102203.44
2022-09-20T18:34:18.919Z,102215.60
2022-09-20T18:36:53.934Z,102212.43
2022-09-20T18:39:23.181Z,102204.42
2022-09-20T18:41:51.813Z,102215.60
2022-09-20T18:44:20.212Z,102220.70
2022-09-20T18:46:48.268Z,102222.93
2022-09-20T18:49:17.876Z,102220.54
2022-09-20T18:51:46.614Z,102223.26
2022-09-20T18:54:14.298Z,102229.96
2022-09-20T18:56:43.897Z,102233.95
2022-09-20T18:59:23.586Z,102230.91
2022-09-20T19:02:06.949Z,102235.71
2022-09-20T19:05:07.890Z,102236.63
2022-09-20T19:07:40.889Z,102241.27
2022-09-20T19:10:08.468Z,102240.62
2022-09-20T19:12:58.138Z,102251.15
2022-09-20T19:15:44.511Z,102250.01
2022-09-20T19:18:39.957Z,102253.37
2022-09-20T19:21:19.407Z,102252.23
2022-09-20T19:23:53.043Z,102258.34
2022-09-20T19:26:22.964Z,102269.00
2022-09-20T19:28:56.349Z,102274.76
2022-09-20T19:31:30.330Z,102269.46
2022-09-20T19:34:00.502Z,102281.33
2022-09-20T19:36:46.029Z,102275.58
2022-09-20T19:39:40.889Z,102277.30
2022-09-20T19:42:25.663Z,102278.91
2022-09-20T19:45:20.177Z,102280.97
2022-09-20T19:48:17.826Z,102285.48
2022-09-20T19:50:49.642Z,102282.12
2022-09-20T19:53:19.715Z,102279.08
2022-09-20T19:55:51.154Z,102292.02
2022-09-20T19:58:19.172Z,102278.95
2022-09-20T20:00:48.468Z,102286.43
2022-09-20T20:03:17.028Z,102286.10
2022-09-20T20:05:58.328Z,102292.32
2022-09-20T20:08:38.656Z,102287.05
2022-09-20T20:11:24.718Z,102288.66
2022-09-20T20:14:31.892Z,102287.05
2022-09-20T20:17:34.478Z,102286.73
2022-09-20T20:20:27.536Z,102289.12
2022-09-20T20:23:20.686Z,102285.78
2022-09-20T20:25:48.575Z,102287.71
2022-09-20T20:28:16.287Z,102295.06
2022-09-20T20:30:44.141Z,102293.46
2022-09-20T20:33:16.556Z,102285.98
2022-09-20T20:35:44.171Z,102295.06
2022-09-20T20:38:12.840Z,102300.95
2022-09-20T20:40:42.639Z,102291.53
2022-09-20T20:43:10.827Z,102302.23
2022-09-20T20:45:39.836Z,102299.35
2022-09-20T20:48:07.672Z,102308.30
2022-09-20T20:50:36.457Z,102309.09
2022-09-20T20:53:04.173Z,102310.70
2022-09-20T20:55:32.370Z,102307.36
2022-09-20T20:58:00.737Z,102307.03
2022-09-20T21:00:29.052Z,102308.63
2022-09-20T21:03:02.487Z,102310.70
2022-09-20T21:05:30.658Z,102308.80
2022-09-20T21:07:59.643Z,102310.07
2022-09-20T21:10:27.278Z,102308.93
2022-09-20T21:12:55.577Z,102317.70
2022-09-20T21:15:23.328Z,102314.33
2022-09-20T21:17:52.577Z,102316.38
2022-09-20T21:20:21.260Z,102310.92
2022-09-20T21:22:48.934Z,102310.92
2022-09-20T21:25:16.657Z,102309.65
2022-09-20T21:27:44.269Z,102309.98
2022-09-20T21:30:12.917Z,102301.84
2022-09-20T21:32:40.565Z,102310.92
2022-09-20T21:35:08.549Z,102311.84
2022-09-20T21:37:36.258Z,102309.95
2022-09-20T21:40:03.988Z,102310.40
2022-09-20T21:42:31.612Z,102308.80
2022-09-20T21:44:59.293Z,102303.86
2022-09-20T21:47:27.260Z,102307.52
2022-09-20T21:49:54.927Z,102305.01
2022-09-20T21:52:22.702Z,102305.01
2022-09-20T21:54:50.774Z,102305.34
2022-09-20T21:57:18.949Z,102303.73
2022-09-20T21:59:46.566Z,102309.45
2022-09-20T22:02:14.276Z,102306.12
2022-09-20T22:04:41.869Z,102305.79
2022-09-20T22:07:10.197Z,102316.12
2022-09-20T22:09:37.845Z,102307.20
2022-09-20T22:12:05.545Z,102304.77
2022-09-20T22:14:33.219Z,102304.77
2022-09-20T22:17:01.356Z,102312.63
2022-09-20T22:19:29.062Z,102305.73
2022-09-20T22:21:56.722Z,102297.42
2022-09-20T22:24:24.947Z,102301.90
2022-09-20T22:26:52.774Z,102300.79
2022-09-20T22:29:21.102Z,102300.30
2022-09-20T22:31:51.098Z,102298.23
2022-09-20T22:34:21.221Z,102297.42
2022-09-20T22:36:49.152Z,102297.78
2022-09-20T22:39:17.412Z,102296.50
2022-09-20T22:41:45.624Z,102294.41
2022-09-20T22:44:13.242Z,102297.13
2022-09-20T22:46:41.134Z,102289.77
2022-09-20T22:49:10.319Z,102298.07
2022-09-20T22:51:38.655Z,102292.32
2022-09-20T22:54:08.649Z,102300.59
2022-09-20T22:56:37.388Z,102296.47
2022-09-20T22:59:07.681Z,102291.17
2022-09-20T23:01:42.564Z,102302.03
2022-09-20T23:04:15.839Z,102299.61
2022-09-20T23:06:48.138Z,102295.95
2022-09-20T23:09:18.859Z,102296.41
2022-09-20T23:11:47.271Z,102304.71
2022-09-20T23:14:20.034Z,102302.29
2022-09-20T23:16:48.597Z,102296.66
2022-09-20T23:19:16.403Z,102297.16
2022-09-20T23:21:45.076Z,102300.04
2022-09-20T23:24:14.962Z,102302.55
2022-09-20T23:26:44.033Z,102305.43
2022-09-20T23:29:16.912Z,102295.06
2022-09-20T23:31:47.103Z,102286.14
2022-09-20T23:34:16.147Z,102300.49
2022-09-20T23:36:44.685Z,102307.52
2022-09-20T23:39:13.337Z,102299.84
2022-09-20T23:41:43.992Z,102299.97
2022-09-20T23:44:14.994Z,102306.51
2022-09-20T23:46:42.621Z,102304.91
2022-09-20T23:49:10.453Z,102302.16
2022-09-20T23:51:38.506Z,102298.92
2022-09-20T23:54:06.731Z,102302.65
2022-09-20T23:56:34.824Z,102290.13
2022-09-20T23:59:02.494Z,102296.99
